createdAt,value
2022-10-07T00:01:24.237Z,3.80
2022-10-07T00:03:55.944Z,7.07
2022-10-07T00:06:27.711Z,4.40
2022-10-07T00:09:00.309Z,4.73
2022-10-07T00:11:32.422Z,7.67
2022-10-07T00:14:07.385Z,4.83
2022-10-07T00:16:41.176Z,5.90
2022-10-07T00:19:13.814Z,5.50
2022-10-07T00:21:45.483Z,4.13
2022-10-07T00:24:17.246Z,4.07
2022-10-07T00:26:49.079Z,12.63
2022-10-07T00:29:20.873Z,6.00
2022-10-07T00:31:57.045Z,7.07
2022-10-07T00:34:28.922Z,5.67
2022-10-07T00:37:00.803Z,4.10
2022-10-07T00:39:32.474Z,4.70
2022-10-07T00:42:04.271Z,8.20
2022-10-07T00:44:38.217Z,5.83
2022-10-07T00:47:34.362Z,4.07
2022-10-07T00:50:12.522Z,5.30
2022-10-07T00:53:01.880Z,4.10
2022-10-07T00:55:33.943Z,3.67
2022-10-07T00:58:09.408Z,4.47
2022-10-07T01:00:42.497Z,5.27
2022-10-07T01:03:15.128Z,11.10
2022-10-07T01:05:46.843Z,4.63
2022-10-07T01:08:20.398Z,5.37
2022-10-07T01:11:21.784Z,4.50
2022-10-07T01:14:18.217Z,5.10
2022-10-07T01:17:08.995Z,4.80
2022-10-07T01:20:05.734Z,7.30
2022-10-07T01:23:05.611Z,4.90
2022-10-07T01:26:15.714Z,6.13
2022-10-07T01:29:18.674Z,5.20
2022-10-07T01:32:01.275Z,6.00
2022-10-07T01:34:34.640Z,7.27
2022-10-07T01:37:11.801Z,6.80
2022-10-07T01:39:51.098Z,5.23
2022-10-07T01:42:26.112Z,8.13
2022-10-07T01:44:59.266Z,11.70
2022-10-07T01:47:30.935Z,5.90
2022-10-07T01:50:02.711Z,8.83
2022-10-07T01:52:37.450Z,10.03
2022-10-07T01:55:46.743Z,5.90
2022-10-07T01:58:33.125Z,14.50
2022-10-07T02:01:38.080Z,5.07
2022-10-07T02:04:26.739Z,7.00
2022-10-07T02:07:16.927Z,7.07
2022-10-07T02:10:13.613Z,6.00
2022-10-07T02:12:59.035Z,5.77
2022-10-07T02:15:51.252Z,6.47
2022-10-07T02:18:23.191Z,5.97
2022-10-07T02:20:55.879Z,6.20
2022-10-07T02:23:28.846Z,6.30
2022-10-07T02:26:03.187Z,9.10
2022-10-07T02:28:39.537Z,6.13
2022-10-07T02:31:15.760Z,8.73
2022-10-07T02:33:48.021Z,15.83
2022-10-07T02:36:34.781Z,6.93
2022-10-07T02:39:07.382Z,11.40
2022-10-07T02:42:02.835Z,8.57
2022-10-07T02:44:47.689Z,6.53
2022-10-07T02:47:43.640Z,11.50
2022-10-07T02:50:22.402Z,6.30
2022-10-07T02:52:56.327Z,7.13
2022-10-07T02:55:30.867Z,5.23
2022-10-07T02:58:07.461Z,7.63
2022-10-07T03:00:43.271Z,4.83
2022-10-07T03:03:15.046Z,5.27
2022-10-07T03:05:49.224Z,5.07
2022-10-07T03:08:21.948Z,8.10
2022-10-07T03:10:53.595Z,6.83
2022-10-07T03:13:25.455Z,5.50
2022-10-07T03:15:57.164Z,6.37
2022-10-07T03:18:29.378Z,5.30
2022-10-07T03:21:01.162Z,8.60
2022-10-07T03:23:33.223Z,8.80
2022-10-07T03:26:05.029Z,10.07
2022-10-07T03:28:37.591Z,7.07
2022-10-07T03:31:11.757Z,5.60
2022-10-07T03:33:43.834Z,5.13
2022-10-07T03:36:15.651Z,6.30
2022-10-07T03:38:47.301Z,8.40
2022-10-07T03:41:19.433Z,4.90
2022-10-07T03:43:51.250Z,8.43
2022-10-07T03:46:23.630Z,6.55
2022-10-07T03:48:55.419Z,8.50
2022-10-07T03:51:27.118Z,8.70
2022-10-07T03:53:59.514Z,6.57
2022-10-07T03:56:31.239Z,8.73
2022-10-07T03:59:03.565Z,9.97
2022-10-07T04:01:35.350Z,5.70
2022-10-07T04:04:07.672Z,5.77
2022-10-07T04:06:39.338Z,7.87
2022-10-07T04:09:14.443Z,5.30
2022-10-07T04:11:46.206Z,4.50
2022-10-07T04:14:18.373Z,4.93
2022-10-07T04:16:50.113Z,7.60
2022-10-07T04:19:22.106Z,9.23
2022-10-07T04:21:53.784Z,5.87
2022-10-07T04:24:25.530Z,11.97
2022-10-07T04:26:57.231Z,11.20
2022-10-07T04:29:29.379Z,8.80
2022-10-07T04:32:01.081Z,7.63
2022-10-07T04:34:32.820Z,9.63
2022-10-07T04:37:05.996Z,8.30
2022-10-07T04:39:59.283Z,10.73
2022-10-07T04:42:47.832Z,6.70
2022-10-07T04:45:19.792Z,6.43
2022-10-07T04:47:51.486Z,8.40
2022-10-07T04:50:23.142Z,5.13
2022-10-07T04:52:54.883Z,9.83
2022-10-07T04:55:26.976Z,6.40
2022-10-07T04:57:58.654Z,13.40
2022-10-07T05:00:30.499Z,9.43
2022-10-07T05:27:58.992Z,5.93
2022-10-07T05:30:30.787Z,8.23
2022-10-07T05:33:02.716Z,8.70
2022-10-07T05:35:34.519Z,7.10
2022-10-07T05:38:06.329Z,7.50
2022-10-07T05:40:38.464Z,10.20
2022-10-07T05:43:10.803Z,6.50
2022-10-07T05:45:42.592Z,7.10
2022-10-07T05:48:14.295Z,7.00
2022-10-07T05:50:47.579Z,7.27
2022-10-07T05:53:19.245Z,8.83
2022-10-07T05:55:51.828Z,9.73
2022-10-07T05:58:24.091Z,11.13
2022-10-07T06:01:03.894Z,6.83
2022-10-07T06:03:38.639Z,7.83
2022-10-07T06:06:10.718Z,8.43
2022-10-07T06:08:42.440Z,7.50
2022-10-07T06:11:34.488Z,7.83
2022-10-07T06:14:06.593Z,11.03
2022-10-07T06:16:38.442Z,7.17
2022-10-07T06:19:22.371Z,6.20
2022-10-07T06:21:54.075Z,11.97
2022-10-07T06:24:25.875Z,8.23
2022-10-07T06:26:59.310Z,8.43
2022-10-07T06:29:30.983Z,8.53
2022-10-07T06:32:02.883Z,10.73
2022-10-07T06:34:34.568Z,8.80
2022-10-07T06:37:06.260Z,11.10
2022-10-07T06:39:37.927Z,9.37
2022-10-07T06:42:09.767Z,8.63
2022-10-07T06:44:41.493Z,7.60
2022-10-07T06:47:13.153Z,8.17
2022-10-07T06:49:44.856Z,8.10
2022-10-07T06:52:16.579Z,7.90
2022-10-07T06:54:48.246Z,8.77
2022-10-07T06:57:44.203Z,8.30
2022-10-07T07:00:12.140Z,14.53
2022-10-07T07:02:44.478Z,8.27
2022-10-07T07:05:16.412Z,9.10
2022-10-07T07:07:48.839Z,11.30
2022-10-07T07:10:21.195Z,8.53
2022-10-07T07:12:54.227Z,16.33
2022-10-07T07:15:26.114Z,6.73
2022-10-07T07:17:57.975Z,7.83
2022-10-07T07:20:35.137Z,7.50
2022-10-07T07:23:10.936Z,7.63
2022-10-07T07:25:45.849Z,14.73
2022-10-07T07:28:18.800Z,9.20
2022-10-07T07:30:50.651Z,9.13
2022-10-07T07:33:22.463Z,8.30
2022-10-07T07:35:56.816Z,8.77
2022-10-07T07:38:28.572Z,10.77
2022-10-07T07:41:05.629Z,12.03
2022-10-07T07:43:37.707Z,15.57
2022-10-07T07:46:12.565Z,12.70
2022-10-07T07:48:44.487Z,11.33
2022-10-07T07:51:17.357Z,13.17
2022-10-07T07:53:52.354Z,17.33
2022-10-07T07:56:24.520Z,12.40
2022-10-07T07:58:56.731Z,15.97
2022-10-07T08:01:31.969Z,12.47
2022-10-07T08:04:04.684Z,13.73
2022-10-07T08:06:37.586Z,14.93
2022-10-07T08:09:09.471Z,17.53
2022-10-07T08:11:45.181Z,13.20
2022-10-07T08:14:17.536Z,17.70
2022-10-07T08:16:50.385Z,11.20
2022-10-07T08:19:22.042Z,16.30
2022-10-07T08:21:53.915Z,11.87
2022-10-07T08:24:25.790Z,13.93
2022-10-07T08:26:57.895Z,14.80
2022-10-07T08:29:30.258Z,12.10
2022-10-07T08:32:01.994Z,19.93
2022-10-07T08:34:33.820Z,10.60
2022-10-07T08:37:05.613Z,11.40
2022-10-07T08:39:37.305Z,13.47
2022-10-07T08:42:15.216Z,11.83
2022-10-07T08:44:49.483Z,15.67
2022-10-07T08:47:43.633Z,11.30
2022-10-07T08:50:40.565Z,10.90
2022-10-07T08:53:20.543Z,12.65
2022-10-07T08:55:56.396Z,10.83
2022-10-07T08:58:36.948Z,12.10
2022-10-07T09:01:27.268Z,10.77
2022-10-07T09:04:05.107Z,16.03
2022-10-07T09:06:45.487Z,13.50
2022-10-07T09:09:24.248Z,13.40
2022-10-07T09:11:57.759Z,12.77
2022-10-07T09:14:33.270Z,15.90
2022-10-07T09:17:13.099Z,13.83
2022-10-07T09:19:54.514Z,9.83
2022-10-07T09:22:32.471Z,10.83
2022-10-07T09:25:20.973Z,10.93
2022-10-07T09:27:54.376Z,16.30
2022-10-07T09:30:28.686Z,14.03
2022-10-07T09:33:00.395Z,10.07
2022-10-07T09:35:32.443Z,10.53
2022-10-07T09:38:09.326Z,15.03
2022-10-07T09:41:18.244Z,8.90
2022-10-07T09:43:49.867Z,11.80
2022-10-07T09:46:51.160Z,10.20
2022-10-07T09:49:28.983Z,10.20
2022-10-07T09:52:23.321Z,7.73
2022-10-07T09:54:57.185Z,10.27
2022-10-07T09:57:35.091Z,9.27
2022-10-07T10:00:12.739Z,8.67
2022-10-07T10:02:54.340Z,11.00
2022-10-07T10:05:31.183Z,8.80
2022-10-07T10:08:07.836Z,8.73
2022-10-07T10:10:39.620Z,8.47
2022-10-07T10:13:27.637Z,10.20
2022-10-07T10:16:00.754Z,9.20
2022-10-07T10:18:40.791Z,8.93
2022-10-07T10:21:22.351Z,8.70
2022-10-07T10:23:57.525Z,12.43
2022-10-07T10:26:42.003Z,9.63
2022-10-07T10:29:40.618Z,9.53
2022-10-07T10:32:24.502Z,8.33
2022-10-07T10:35:14.275Z,9.23
2022-10-07T10:38:04.620Z,11.90
2022-10-07T10:41:08.525Z,9.02
2022-10-07T10:44:03.484Z,8.70
2022-10-07T10:46:39.387Z,7.93
2022-10-07T10:49:23.052Z,9.20
2022-10-07T10:52:38.948Z,10.10
2022-10-07T10:55:27.102Z,8.53
2022-10-07T10:58:30.028Z,11.00
2022-10-07T11:01:24.008Z,11.50
2022-10-07T11:04:10.537Z,9.30
2022-10-07T11:06:47.331Z,9.32
2022-10-07T11:09:39.307Z,10.37
2022-10-07T11:12:26.440Z,8.37
2022-10-07T11:15:22.887Z,12.80
2022-10-07T11:18:01.233Z,9.23
2022-10-07T11:20:38.829Z,9.60
2022-10-07T11:23:21.682Z,10.63
2022-10-07T11:26:12.873Z,10.23
2022-10-07T11:28:45.976Z,8.60
2022-10-07T11:31:50.066Z,10.00
2022-10-07T11:34:41.942Z,9.80
2022-10-07T11:37:38.160Z,9.30
2022-10-07T11:40:10.246Z,9.13
2022-10-07T11:42:47.024Z,9.60
2022-10-07T11:45:26.232Z,8.87
2022-10-07T11:48:06.144Z,8.47
2022-10-07T11:50:55.084Z,9.73
2022-10-07T11:53:31.215Z,10.03
2022-10-07T11:56:05.693Z,11.97
2022-10-07T11:58:39.172Z,10.40
2022-10-07T12:01:26.312Z,10.90
2022-10-07T12:04:35.347Z,12.80
2022-10-07T12:07:35.044Z,10.50
2022-10-07T12:10:07.375Z,20.43
2022-10-07T12:12:50.677Z,9.67
2022-10-07T12:15:42.499Z,11.03
2022-10-07T12:18:20.114Z,10.40
2022-10-07T12:20:52.874Z,8.83
2022-10-07T12:23:28.150Z,9.87
2022-10-07T12:26:02.578Z,10.80
2022-10-07T12:28:56.955Z,10.40
2022-10-07T12:31:31.735Z,10.73
2022-10-07T12:34:08.425Z,9.27
2022-10-07T12:36:41.301Z,9.80
2022-10-07T12:39:13.003Z,10.07
2022-10-07T12:41:46.510Z,10.23
2022-10-07T12:44:27.067Z,9.83
2022-10-07T12:47:13.871Z,11.77
2022-10-07T12:49:59.149Z,10.67
2022-10-07T12:52:54.753Z,10.63
2022-10-07T12:55:38.928Z,12.77
2022-10-07T12:59:04.515Z,9.23
2022-10-07T13:01:48.026Z,12.10
2022-10-07T13:04:19.732Z,16.80
2022-10-07T13:07:12.638Z,11.67
2022-10-07T13:10:07.604Z,10.10
2022-10-07T13:12:53.873Z,9.50
2022-10-07T13:15:42.651Z,10.80
2022-10-07T13:18:41.732Z,14.63
2022-10-07T13:21:26.214Z,10.30
2022-10-07T13:23:58.001Z,10.77
2022-10-07T13:26:30.049Z,9.67
2022-10-07T13:29:02.867Z,10.30
2022-10-07T13:31:35.803Z,10.37
2022-10-07T13:34:18.025Z,10.50
2022-10-07T13:36:49.754Z,11.60
2022-10-07T13:39:23.545Z,10.10
2022-10-07T13:41:58.564Z,9.33
2022-10-07T13:44:32.575Z,10.23
2022-10-07T13:47:06.890Z,11.87
2022-10-07T13:49:43.676Z,11.63
2022-10-07T13:52:32.361Z,13.87
2022-10-07T13:55:39.128Z,12.67
2022-10-07T13:58:11.017Z,14.70
2022-10-07T14:00:48.858Z,14.23
2022-10-07T14:03:20.589Z,13.57
2022-10-07T14:05:53.645Z,10.13
2022-10-07T14:08:30.378Z,12.80
2022-10-07T14:11:21.950Z,11.50
2022-10-07T14:13:53.707Z,10.87
2022-10-07T14:16:26.021Z,10.57
2022-10-07T14:18:58.210Z,10.43
2022-10-07T14:21:34.828Z,9.97
2022-10-07T14:24:10.653Z,10.80
2022-10-07T14:26:44.950Z,11.20
2022-10-07T14:29:28.800Z,9.63
2022-10-07T14:32:35.056Z,9.43
2022-10-07T14:35:18.956Z,9.50
2022-10-07T14:37:50.634Z,8.50
2022-10-07T14:40:24.283Z,10.97
2022-10-07T14:42:57.435Z,9.30
2022-10-07T14:45:30.028Z,8.70
2022-10-07T14:48:01.677Z,10.33
2022-10-07T14:50:33.624Z,9.00
2022-10-07T14:53:05.359Z,9.53
2022-10-07T14:55:37.136Z,11.83
2022-10-07T14:58:12.182Z,8.37
2022-10-07T15:00:43.868Z,9.90
2022-10-07T15:03:15.671Z,8.90
2022-10-07T15:05:48.782Z,9.40
2022-10-07T15:08:20.839Z,9.77
2022-10-07T15:10:52.500Z,9.90
2022-10-07T15:13:24.239Z,8.67
2022-10-07T15:15:56.010Z,9.57
2022-10-07T15:18:27.680Z,11.27
2022-10-07T15:20:59.399Z,12.13
2022-10-07T15:23:31.179Z,10.00
2022-10-07T15:26:03.690Z,8.53
2022-10-07T15:28:35.557Z,10.90
2022-10-07T15:31:09.184Z,11.93
2022-10-07T15:33:41.148Z,9.10
2022-10-07T15:36:13.340Z,10.37
2022-10-07T15:38:45.090Z,11.00
2022-10-07T15:41:30.059Z,10.10
2022-10-07T15:44:07.317Z,13.03
2022-10-07T15:46:39.119Z,12.90
2022-10-07T15:49:10.891Z,8.83
2022-10-07T15:51:42.837Z,8.30
2022-10-07T15:54:14.872Z,8.60
2022-10-07T15:56:49.988Z,9.97
2022-10-07T15:59:21.714Z,10.10
2022-10-07T16:01:53.572Z,11.83
2022-10-07T16:04:25.650Z,9.13
2022-10-07T16:06:58.108Z,10.07
2022-10-07T16:09:29.955Z,11.13
2022-10-07T16:12:01.693Z,9.43
2022-10-07T16:14:33.635Z,9.17
2022-10-07T16:17:05.340Z,15.53
2022-10-07T16:19:37.023Z,11.33
2022-10-07T16:22:09.528Z,8.73
2022-10-07T16:24:42.232Z,9.53
2022-10-07T16:27:13.918Z,9.97
2022-10-07T16:30:04.289Z,8.87
2022-10-07T16:32:35.935Z,9.60
2022-10-07T16:35:09.539Z,12.10
2022-10-07T16:37:41.191Z,11.03
2022-10-07T16:40:12.994Z,10.70
2022-10-07T16:42:44.941Z,14.33
2022-10-07T16:45:16.827Z,10.77
2022-10-07T16:47:48.693Z,9.03
2022-10-07T16:50:21.348Z,9.10
2022-10-07T16:52:53.029Z,10.90
2022-10-07T16:55:24.783Z,11.77
2022-10-07T16:57:57.047Z,10.03
2022-10-07T17:00:29.423Z,11.40
2022-10-07T17:03:01.166Z,13.40
2022-10-07T17:05:33.039Z,10.60
2022-10-07T17:08:05.475Z,11.07
2022-10-07T17:10:40.357Z,13.03
2022-10-07T17:13:12.698Z,10.67
2022-10-07T17:15:49.128Z,10.10
2022-10-07T17:18:26.011Z,11.10
2022-10-07T17:20:59.284Z,11.17
2022-10-07T17:23:33.069Z,10.43
2022-10-07T17:26:07.608Z,17.77
2022-10-07T17:28:39.508Z,15.63
2022-10-07T17:31:12.867Z,15.00
2022-10-07T17:33:45.197Z,13.20
2022-10-07T17:36:17.559Z,10.83
2022-10-07T17:38:49.757Z,11.23
2022-10-07T17:41:33.745Z,15.70
2022-10-07T17:44:11.411Z,9.63
2022-10-07T17:46:43.406Z,10.97
2022-10-07T17:49:16.207Z,11.60
2022-10-07T17:51:47.934Z,11.13
2022-10-07T17:54:19.710Z,9.80
2022-10-07T17:56:51.411Z,11.37
2022-10-07T17:59:23.078Z,11.50
2022-10-07T18:01:54.766Z,10.87
2022-10-07T18:04:26.590Z,14.43
2022-10-07T18:06:58.818Z,11.00
2022-10-07T18:09:30.575Z,11.07
2022-10-07T18:12:21.122Z,11.73
2022-10-07T18:15:11.418Z,16.43
2022-10-07T18:17:43.412Z,10.60
2022-10-07T18:20:15.525Z,13.17
2022-10-07T18:22:47.888Z,11.98
2022-10-07T18:25:19.535Z,11.40
2022-10-07T18:27:51.310Z,11.57
2022-10-07T18:30:23.201Z,9.83
2022-10-07T18:32:54.883Z,11.10
2022-10-07T18:35:26.567Z,10.23
2022-10-07T18:37:58.214Z,11.37
2022-10-07T18:40:30.992Z,11.43
2022-10-07T18:43:02.775Z,11.67
2022-10-07T18:45:34.666Z,12.43
2022-10-07T18:48:06.371Z,15.97
2022-10-07T18:50:38.061Z,12.97
2022-10-07T18:53:09.773Z,12.07
2022-10-07T18:55:42.507Z,13.80
2022-10-07T18:58:14.216Z,12.73
2022-10-07T19:00:45.965Z,18.30
2022-10-07T19:03:17.686Z,11.87
2022-10-07T19:05:49.451Z,12.97
2022-10-07T19:08:21.990Z,10.27
2022-10-07T19:10:53.732Z,17.57
2022-10-07T19:13:44.168Z,11.68
2022-10-07T19:16:18.985Z,12.73
2022-10-07T19:18:53.766Z,12.37
2022-10-07T19:21:26.305Z,13.10
2022-10-07T19:23:58.837Z,13.73
2022-10-07T19:26:35.032Z,11.90
2022-10-07T19:29:10.844Z,11.07
2022-10-07T19:31:45.390Z,15.10
2022-10-07T19:34:20.107Z,18.13
2022-10-07T19:36:51.795Z,11.77
2022-10-07T19:39:23.547Z,12.40
2022-10-07T19:41:57.531Z,11.47
2022-10-07T19:44:29.256Z,13.47
2022-10-07T19:47:01.460Z,12.53
2022-10-07T19:49:33.146Z,14.57
2022-10-07T19:52:04.815Z,11.67
2022-10-07T19:54:39.668Z,11.63
2022-10-07T19:57:12.475Z,13.10
2022-10-07T19:59:44.161Z,12.57
2022-10-07T20:02:16.108Z,14.07
2022-10-07T20:04:47.796Z,14.97
2022-10-07T20:07:20.106Z,14.17
2022-10-07T20:09:52.865Z,16.60
2022-10-07T20:12:24.635Z,13.27
2022-10-07T20:14:56.367Z,15.40
2022-10-07T20:17:28.067Z,14.40
2022-10-07T20:19:59.865Z,15.50
2022-10-07T20:22:34.359Z,13.50
2022-10-07T20:25:06.839Z,20.27
2022-10-07T20:27:39.092Z,15.97
2022-10-07T20:30:17.561Z,18.30
2022-10-07T20:32:50.111Z,16.70
2022-10-07T20:35:23.433Z,14.43
2022-10-07T20:37:55.147Z,18.67
2022-10-07T20:40:45.303Z,20.67
2022-10-07T20:43:17.082Z,16.37
2022-10-07T20:45:56.140Z,14.07
2022-10-07T20:48:29.399Z,15.60
2022-10-07T20:51:08.188Z,17.37
2022-10-07T20:53:40.010Z,18.00
2022-10-07T20:56:11.790Z,14.50
2022-10-07T20:58:46.449Z,22.10
2022-10-07T21:01:18.387Z,14.00
2022-10-07T21:03:50.165Z,15.67
2022-10-07T21:06:21.899Z,17.93
2022-10-07T21:08:54.382Z,20.67
2022-10-07T21:11:27.351Z,14.90
2022-10-07T21:13:59.334Z,15.43
2022-10-07T21:16:32.353Z,15.07
2022-10-07T21:19:04.649Z,18.60
2022-10-07T21:21:36.427Z,23.73
2022-10-07T21:24:08.515Z,15.40
2022-10-07T21:26:40.214Z,17.73
2022-10-07T21:29:12.524Z,19.00
2022-10-07T21:31:44.170Z,18.02
2022-10-07T21:34:15.916Z,15.20
2022-10-07T21:36:51.748Z,17.53
2022-10-07T21:39:26.392Z,23.77
2022-10-07T21:41:58.689Z,17.40
2022-10-07T21:44:33.406Z,17.90
2022-10-07T21:47:05.304Z,13.63
2022-10-07T21:49:36.994Z,14.77
2022-10-07T21:52:09.679Z,15.57
2022-10-07T21:54:42.409Z,16.70
2022-10-07T21:57:14.128Z,15.23
2022-10-07T21:59:45.888Z,15.70
2022-10-07T22:02:17.993Z,16.47
2022-10-07T22:04:49.733Z,16.60
2022-10-07T22:07:40.070Z,16.10
2022-10-07T22:10:11.710Z,14.60
2022-10-07T22:12:44.181Z,17.57
2022-10-07T22:15:17.088Z,14.93
2022-10-07T22:17:48.755Z,17.77
2022-10-07T22:20:20.433Z,21.27
2022-10-07T22:22:54.576Z,21.73
2022-10-07T22:25:28.509Z,17.73
2022-10-07T22:28:00.227Z,18.27
2022-10-07T22:30:32.005Z,19.53
2022-10-07T22:33:03.785Z,17.23
2022-10-07T22:35:39.180Z,19.77
2022-10-07T22:38:11.167Z,22.67
2022-10-07T22:40:42.920Z,19.20
2022-10-07T22:43:14.595Z,22.63
2022-10-07T22:45:58.085Z,21.77
2022-10-07T22:48:31.437Z,21.93
2022-10-07T22:51:08.927Z,24.80
2022-10-07T22:53:43.002Z,22.10
2022-10-07T22:56:17.542Z,31.73
2022-10-07T22:58:53.623Z,29.10
2022-10-07T23:01:29.355Z,22.37
2022-10-07T23:04:03.244Z,21.00
2022-10-07T23:06:35.870Z,27.10
2022-10-07T23:09:07.700Z,29.30
2022-10-07T23:11:39.708Z,28.10
2022-10-07T23:14:12.589Z,26.70
2022-10-07T23:16:44.827Z,24.70
2022-10-07T23:19:16.604Z,25.85
2022-10-07T23:21:48.614Z,27.97
2022-10-07T23:24:20.307Z,28.97
2022-10-07T23:26:52.019Z,23.93
2022-10-07T23:29:24.129Z,30.60
2022-10-07T23:31:56.419Z,31.73
2022-10-07T23:34:28.283Z,26.70
2022-10-07T23:36:59.955Z,25.20
2022-10-07T23:39:33.436Z,23.43
2022-10-07T23:42:05.175Z,23.13
2022-10-07T23:44:37.438Z,26.03
2022-10-07T23:47:09.084Z,23.20
2022-10-07T23:49:40.778Z,23.87
2022-10-07T23:52:13.217Z,25.40
2022-10-07T23:54:44.907Z,25.60
2022-10-07T23:57:16.641Z,23.20
2022-10-07T23:59:48.283Z,24.60
